Time;durP1;ratioP1;P1;durP2;ratioP2;P2;SDS_P1;SDS_P2;PMS_P1;PMS_P2;Temp;Humidity;BMP_temperature;BMP_pressure;BME280_temperature;BME280_humidity;BME280_pressure;Samples;Min_cycle;Max_cycle;Signal;HPM_P1;HPM_P2
2022/03/24 00:01:36;;;;;;;11.52;7.40;;;20.90;50.00;;;;;;4881019;29;20521;-57
2022/03/24 00:04:02;;;;;;;11.05;6.55;;;20.90;49.30;;;;;;4880136;29;20045;-57
2022/03/24 00:06:27;;;;;;;10.57;6.43;;;20.80;49.20;;;;;;4880543;29;20075;-57
2022/03/24 00:08:53;;;;;;;9.05;6.43;;;20.80;49.20;;;;;;4880190;29;20048;-57
2022/03/24 00:11:20;;;;;;;10.93;6.82;;;20.80;49.10;;;;;;4880659;29;20421;-57
2022/03/24 00:13:46;;;;;;;12.10;6.93;;;20.80;49.10;;;;;;4880384;29;20132;-57
2022/03/24 00:16:11;;;;;;;11.60;7.05;;;20.80;49.10;;;;;;4879890;29;20137;-57
2022/03/24 00:18:37;;;;;;;11.32;7.38;;;20.80;49.00;;;;;;4880573;29;20052;-57
2022/03/24 00:21:02;;;;;;;9.93;6.72;;;20.80;49.10;;;;;;4880549;29;20140;-57
2022/03/24 00:23:28;;;;;;;9.60;6.85;;;20.80;49.00;;;;;;4879521;29;20059;-57
2022/03/24 00:25:54;;;;;;;11.05;7.18;;;20.80;49.00;;;;;;4880743;29;20132;-57
2022/03/24 00:28:19;;;;;;;10.70;6.88;;;20.80;48.90;;;;;;4880398;29;20068;-57
2022/03/24 00:30:45;;;;;;;12.95;7.53;;;20.70;48.90;;;;;;4879718;29;20049;-57
2022/03/24 00:33:11;;;;;;;11.23;6.65;;;20.80;48.90;;;;;;4880339;29;20052;-58
2022/03/24 00:35:37;;;;;;;11.07;7.20;;;20.70;48.90;;;;;;4880320;29;20068;-58
2022/03/24 00:38:05;;;;;;;12.27;7.38;;;20.70;48.80;;;;;;4879816;29;20045;-57
2022/03/24 00:40:31;;;;;;;10.43;6.60;;;20.70;48.80;;;;;;4880148;29;20100;-57
2022/03/24 00:42:59;;;;;;;10.43;6.45;;;20.70;48.80;;;;;;4879666;29;20478;-58
2022/03/24 00:45:24;;;;;;;11.73;6.97;;;20.70;48.70;;;;;;4878765;29;20068;-58
2022/03/24 00:47:50;;;;;;;11.95;6.97;;;20.70;48.80;;;;;;4880175;29;20386;-57
2022/03/24 00:50:15;;;;;;;10.77;6.93;;;20.70;48.70;;;;;;4879699;29;20532;-57
2022/03/24 00:52:41;;;;;;;11.00;7.13;;;20.70;49.40;;;;;;4879531;29;20055;-57
2022/03/24 00:55:17;;;;;;;11.05;7.22;;;20.70;48.70;;;;;;4880228;29;20076;-58
2022/03/24 00:57:44;;;;;;;11.05;7.15;;;20.60;49.30;;;;;;4880103;29;20501;-57
2022/03/24 01:00:19;;;;;;;11.13;7.03;;;20.70;48.70;;;;;;4879294;29;20140;-57
2022/03/24 01:02:48;;;;;;;10.90;7.32;;;20.60;48.60;;;;;;4879944;29;20045;-57
2022/03/24 01:05:15;;;;;;;13.23;7.72;;;20.60;48.60;;;;;;4879013;29;20045;-57
2022/03/24 01:07:41;;;;;;;11.77;7.30;;;20.60;48.60;;;;;;4880016;29;20045;-57
2022/03/24 01:10:07;;;;;;;9.85;7.13;;;20.60;48.50;;;;;;4879975;29;20371;-57
2022/03/24 01:12:32;;;;;;;10.85;7.05;;;20.60;48.50;;;;;;4878466;29;20514;-57
2022/03/24 01:14:58;;;;;;;10.15;6.47;;;20.60;48.50;;;;;;4879613;29;20076;-57
2022/03/24 01:17:26;;;;;;;11.18;6.65;;;20.60;48.50;;;;;;4879403;29;20044;-57
2022/03/24 01:19:52;;;;;;;9.83;6.80;;;20.50;48.40;;;;;;4878829;29;20133;-57
2022/03/24 01:22:17;;;;;;;10.35;7.15;;;20.50;48.40;;;;;;4879239;29;20325;-57
2022/03/24 01:24:45;;;;;;;8.75;6.68;;;20.60;48.40;;;;;;4879414;29;20048;-57
2022/03/24 01:27:11;;;;;;;10.55;6.88;;;20.50;48.30;;;;;;4878760;29;20053;-57
2022/03/24 01:29:36;;;;;;;9.00;6.63;;;20.50;48.40;;;;;;4879517;29;20037;-57
2022/03/24 01:32:03;;;;;;;9.23;6.70;;;20.50;48.40;;;;;;4878986;29;20053;-57
2022/03/24 01:34:29;;;;;;;9.18;6.45;;;20.50;48.30;;;;;;4878474;29;20045;-57
2022/03/24 01:36:55;;;;;;;10.25;7.13;;;20.50;48.30;;;;;;4879455;29;20063;-57
2022/03/24 01:39:21;;;;;;;10.80;6.90;;;20.50;48.30;;;;;;4879106;29;20049;-57
2022/03/24 01:41:47;;;;;;;10.00;6.70;;;20.50;48.30;;;;;;4878657;29;20049;-57
2022/03/24 01:44:17;;;;;;;10.13;7.00;;;20.50;48.20;;;;;;4879149;29;20110;-57
2022/03/24 01:47:02;;;;;;;12.18;6.90;;;20.50;48.20;;;;;;4878342;29;20129;-57
2022/03/24 01:49:29;;;;;;;11.85;7.32;;;20.50;48.20;;;;;;4878475;29;20076;-57
2022/03/24 01:51:55;;;;;;;8.35;6.47;;;20.40;48.20;;;;;;4879288;29;20055;-57
2022/03/24 01:54:21;;;;;;;8.60;6.50;;;20.40;48.10;;;;;;4877818;29;20045;-57
2022/03/24 01:56:47;;;;;;;8.93;6.88;;;20.40;48.10;;;;;;4879102;29;20033;-57
2022/03/24 01:59:14;;;;;;;10.30;6.78;;;20.40;48.10;;;;;;4878725;29;20397;-57
2022/03/24 02:01:40;;;;;;;10.70;7.03;;;20.40;48.00;;;;;;4878244;29;20056;-57
2022/03/24 02:04:05;;;;;;;10.95;7.15;;;20.40;48.00;;;;;;4878955;29;20048;-57
2022/03/24 02:06:32;;;;;;;10.02;6.57;;;20.40;48.00;;;;;;4878676;29;20044;-57
2022/03/24 02:08:59;;;;;;;9.82;6.88;;;20.40;48.00;;;;;;4878411;29;20088;-57
2022/03/24 02:11:24;;;;;;;10.73;7.10;;;20.40;48.00;;;;;;4878446;29;20052;-57
2022/03/24 02:13:50;;;;;;;10.00;6.95;;;20.40;48.00;;;;;;4861876;29;20053;-57
2022/03/24 02:16:15;;;;;;;10.10;6.32;;;20.40;48.00;;;;;;4877815;29;20053;-57
2022/03/24 02:18:41;;;;;;;12.13;6.68;;;20.30;47.90;;;;;;4878949;29;20490;-57
2022/03/24 02:21:06;;;;;;;9.88;6.97;;;20.30;47.90;;;;;;4878565;29;20050;-57
2022/03/24 02:23:32;;;;;;;11.63;7.45;;;20.30;47.90;;;;;;4877840;29;20490;-57
2022/03/24 02:25:57;;;;;;;10.43;6.53;;;20.30;47.90;;;;;;4878700;29;20045;-57
2022/03/24 02:28:23;;;;;;;9.57;6.80;;;20.30;47.90;;;;;;4877521;29;20140;-57
2022/03/24 02:30:50;;;;;;;13.52;8.02;;;20.30;47.80;;;;;;4878195;29;20053;-57
2022/03/24 02:33:20;;;;;;;11.73;6.80;;;20.30;47.80;;;;;;4878396;29;20378;-57
2022/03/24 02:35:46;;;;;;;9.43;6.43;;;20.30;47.80;;;;;;4877608;29;20049;-57
2022/03/24 02:38:11;;;;;;;9.20;6.72;;;20.30;47.80;;;;;;4877889;29;20109;-57
2022/03/24 02:40:37;;;;;;;9.57;6.68;;;20.30;47.80;;;;;;4878610;29;20103;-57
2022/03/24 02:43:02;;;;;;;9.55;7.13;;;20.30;47.80;;;;;;4878673;29;20053;-57
2022/03/24 02:45:28;;;;;;;8.98;6.85;;;20.30;47.80;;;;;;4877680;29;20109;-58
2022/03/24 02:47:54;;;;;;;10.60;7.07;;;20.20;47.70;;;;;;4879051;29;20499;-57
2022/03/24 02:50:22;;;;;;;9.52;6.57;;;20.20;47.60;;;;;;4878429;29;20482;-57
2022/03/24 02:52:47;;;;;;;13.23;7.10;;;20.20;47.70;;;;;;4878009;29;20053;-58
2022/03/24 02:55:13;;;;;;;9.75;6.95;;;20.20;47.60;;;;;;4878119;29;20045;-57
2022/03/24 02:57:38;;;;;;;10.25;6.82;;;20.20;47.50;;;;;;4878036;29;20041;-57
2022/03/24 03:00:05;;;;;;;10.80;6.55;;;20.20;47.60;;;;;;4878297;29;20049;-57
2022/03/24 03:02:31;;;;;;;10.35;6.97;;;20.20;47.60;;;;;;4858661;29;20053;-57
2022/03/24 03:04:56;;;;;;;11.07;6.85;;;20.20;47.50;;;;;;4858528;29;20458;-57
2022/03/24 03:07:22;;;;;;;10.35;7.40;;;20.20;47.60;;;;;;4859964;29;20053;-57
2022/03/24 03:09:48;;;;;;;8.98;6.68;;;20.10;47.50;;;;;;4861978;29;20049;-57
2022/03/24 03:12:13;;;;;;;8.93;6.63;;;20.20;47.50;;;;;;4862001;29;20048;-58
2022/03/24 03:14:39;;;;;;;8.85;6.63;;;20.10;47.50;;;;;;4863285;29;20045;-57
2022/03/24 03:17:05;;;;;;;9.02;6.50;;;20.10;47.50;;;;;;4863052;29;20524;-57
2022/03/24 03:19:31;;;;;;;9.23;6.07;;;20.10;47.50;;;;;;4861946;29;20049;-57
2022/03/24 03:21:56;;;;;;;9.05;6.53;;;20.10;47.40;;;;;;4862642;29;20060;-57
2022/03/24 03:24:22;;;;;;;10.32;6.55;;;20.10;47.40;;;;;;4862829;29;20512;-57
2022/03/24 03:26:48;;;;;;;9.80;6.95;;;20.10;47.40;;;;;;4862442;29;20455;-58
2022/03/24 03:29:14;;;;;;;10.32;6.90;;;20.10;47.40;;;;;;4862769;29;20460;-57
2022/03/24 03:31:39;;;;;;;8.65;6.75;;;20.10;47.40;;;;;;4863050;29;20059;-57
2022/03/24 03:34:07;;;;;;;8.80;5.93;;;20.10;47.30;;;;;;4862407;29;20052;-57
2022/03/24 03:36:33;;;;;;;8.88;6.60;;;20.10;47.30;;;;;;4862632;29;20051;-57
2022/03/24 03:38:58;;;;;;;9.07;6.60;;;20.10;48.00;;;;;;4862563;29;20053;-57
2022/03/24 03:41:24;;;;;;;8.07;6.53;;;20.10;47.30;;;;;;4861896;29;20045;-57
2022/03/24 03:43:49;;;;;;;9.25;6.80;;;20.20;47.50;;;;;;4862842;29;20509;-57
2022/03/24 03:46:16;;;;;;;8.38;6.32;;;20.10;47.40;;;;;;4862384;29;20117;-57
2022/03/24 03:48:41;;;;;;;8.40;6.50;;;20.10;47.50;;;;;;4861979;29;20037;-57
2022/03/24 03:51:08;;;;;;;9.85;6.68;;;20.20;47.50;;;;;;4862451;29;20542;-57
2022/03/24 03:53:34;;;;;;;9.50;6.45;;;20.10;47.40;;;;;;4862531;29;20041;-57
2022/03/24 03:56:00;;;;;;;9.50;5.80;;;20.20;47.50;;;;;;4861934;29;20486;-57
2022/03/24 03:58:26;;;;;;;8.23;6.10;;;20.20;47.50;;;;;;4862428;29;20117;-57
2022/03/24 04:00:58;;;;;;;8.30;6.15;;;20.20;47.50;;;;;;4861924;29;20124;-57
2022/03/24 04:03:28;;;;;;;8.10;6.38;;;20.20;47.50;;;;;;4862344;29;20049;-57
2022/03/24 04:05:55;;;;;;;9.23;6.72;;;20.20;47.50;;;;;;4862407;29;20034;-57
2022/03/24 04:08:20;;;;;;;9.20;6.35;;;20.20;47.50;;;;;;4861437;29;20060;-57
2022/03/24 04:10:46;;;;;;;10.30;6.63;;;20.20;47.40;;;;;;4862514;29;20045;-57
2022/03/24 04:13:12;;;;;;;9.68;7.18;;;20.20;47.40;;;;;;4861882;29;20080;-57
2022/03/24 04:15:38;;;;;;;8.73;6.70;;;20.20;47.30;;;;;;4861631;29;20375;-57
2022/03/24 04:18:04;;;;;;;8.63;6.25;;;20.20;47.30;;;;;;4862305;29;20041;-57
2022/03/24 04:20:30;;;;;;;8.93;6.47;;;20.20;47.30;;;;;;4861832;29;20383;-57
2022/03/24 04:22:59;;;;;;;8.55;6.30;;;20.20;47.30;;;;;;4861446;29;20136;-57
2022/03/24 04:25:24;;;;;;;8.07;6.60;;;20.20;47.30;;;;;;4862007;29;20049;-57
2022/03/24 04:27:50;;;;;;;8.20;6.10;;;20.20;47.30;;;;;;4862163;29;20048;-57
2022/03/24 04:30:16;;;;;;;9.68;6.65;;;20.20;47.30;;;;;;4861094;29;20470;-57
2022/03/24 04:32:42;;;;;;;8.43;6.38;;;20.20;47.30;;;;;;4862065;29;20125;-57
2022/03/24 04:35:08;;;;;;;9.38;6.90;;;20.20;48.00;;;;;;4861979;29;20053;-57
2022/03/24 04:37:34;;;;;;;8.57;6.18;;;20.20;47.20;;;;;;4860862;29;20049;-57
2022/03/24 04:40:00;;;;;;;8.80;6.15;;;20.20;47.20;;;;;;4861825;29;20090;-57
2022/03/24 04:42:26;;;;;;;8.43;6.43;;;20.20;47.30;;;;;;4861553;29;20061;-57
2022/03/24 04:44:51;;;;;;;7.85;5.70;;;20.20;47.30;;;;;;4861016;29;20468;-57
2022/03/24 04:47:17;;;;;;;7.40;5.72;;;20.20;47.40;;;;;;4861443;29;20049;-57
2022/03/24 04:49:43;;;;;;;7.20;6.13;;;20.20;47.40;;;;;;4861743;29;20494;-57
2022/03/24 04:52:08;;;;;;;9.13;6.32;;;20.20;47.40;;;;;;4860637;29;20089;-57
2022/03/24 04:54:34;;;;;;;8.40;6.22;;;20.20;47.50;;;;;;4874525;29;20041;-57
2022/03/24 04:57:00;;;;;;;7.95;6.30;;;20.20;47.40;;;;;;4880132;29;20053;-57
2022/03/24 04:59:26;;;;;;;9.10;6.90;;;20.20;47.30;;;;;;4878982;29;20496;-57
2022/03/24 05:01:52;;;;;;;8.52;6.25;;;20.20;47.30;;;;;;4871315;29;20050;-57
2022/03/24 05:04:17;;;;;;;8.90;6.07;;;20.30;47.40;;;;;;4875701;29;20037;-57
2022/03/24 05:06:43;;;;;;;8.10;6.60;;;20.30;47.40;;;;;;4879050;29;20113;-57
2022/03/24 05:09:08;;;;;;;8.55;6.40;;;20.30;47.30;;;;;;4879936;29;20108;-57
2022/03/24 05:11:34;;;;;;;9.15;6.45;;;20.30;47.20;;;;;;4878676;29;20089;-57
2022/03/24 05:13:59;;;;;;;8.85;6.00;;;20.30;47.30;;;;;;4879488;29;20056;-57
2022/03/24 05:16:25;;;;;;;7.70;5.82;;;20.30;47.40;;;;;;4879438;29;20140;-57
2022/03/24 05:18:50;;;;;;;10.45;7.20;;;20.30;47.30;;;;;;4878704;29;20117;-57
2022/03/24 05:21:16;;;;;;;8.50;6.32;;;20.30;47.30;;;;;;4879086;29;20489;-57
2022/03/24 05:23:42;;;;;;;7.85;5.90;;;20.30;47.20;;;;;;4879637;29;20512;-57
2022/03/24 05:26:07;;;;;;;8.90;6.18;;;20.30;47.20;;;;;;4878738;29;20139;-57
2022/03/24 05:28:33;;;;;;;9.07;6.82;;;20.30;47.20;;;;;;4879364;29;20556;-57
2022/03/24 05:30:58;;;;;;;9.05;6.35;;;20.30;47.10;;;;;;4878626;29;20052;-57
2022/03/24 05:33:24;;;;;;;9.65;6.60;;;20.30;47.00;;;;;;4878142;29;20177;-58
2022/03/24 05:35:50;;;;;;;8.07;6.03;;;20.30;47.00;;;;;;4879518;29;20067;-57
2022/03/24 05:38:16;;;;;;;7.93;5.88;;;20.40;47.20;;;;;;4878903;29;20387;-57
2022/03/24 05:40:41;;;;;;;8.15;6.40;;;20.30;47.10;;;;;;4878601;29;20048;-57
2022/03/24 05:43:07;;;;;;;8.20;6.38;;;20.40;47.20;;;;;;4879075;29;20128;-57
2022/03/24 05:45:32;;;;;;;8.38;6.50;;;20.40;47.10;;;;;;4879083;29;20045;-57
2022/03/24 05:47:58;;;;;;;9.80;6.50;;;20.40;47.10;;;;;;4878721;29;20412;-57
2022/03/24 05:50:29;;;;;;;8.57;6.50;;;20.40;47.10;;;;;;4878823;29;20179;-57
2022/03/24 05:52:55;;;;;;;7.70;5.75;;;20.40;47.00;;;;;;4879146;29;20049;-57
2022/03/24 05:55:23;;;;;;;8.68;6.07;;;20.40;47.10;;;;;;4878323;29;20060;-57
2022/03/24 05:57:49;;;;;;;8.02;6.30;;;20.40;47.00;;;;;;4879210;29;20053;-57
2022/03/24 06:00:15;;;;;;;7.78;6.20;;;20.40;47.10;;;;;;4878680;29;20493;-57
2022/03/24 06:02:41;;;;;;;8.30;6.05;;;20.40;47.10;;;;;;4877970;29;20099;-57
2022/03/24 06:05:12;;;;;;;9.70;6.97;;;20.40;47.00;;;;;;4879381;29;20045;-56
2022/03/24 06:07:40;;;;;;;8.48;6.43;;;20.40;47.00;;;;;;4877358;29;20053;-57
2022/03/24 06:10:07;;;;;;;9.70;6.50;;;20.40;47.00;;;;;;4879146;29;20049;-57
2022/03/24 06:12:34;;;;;;;6.93;5.82;;;20.40;47.10;;;;;;4878657;29;20083;-57
2022/03/24 06:14:59;;;;;;;8.50;6.30;;;20.40;47.10;;;;;;4878048;29;20496;-57
2022/03/24 06:17:25;;;;;;;8.57;6.15;;;20.40;47.00;;;;;;4878356;29;20080;-57
2022/03/24 06:19:52;;;;;;;7.53;5.78;;;20.50;47.00;;;;;;4879033;29;20485;-57
2022/03/24 06:22:18;;;;;;;7.97;6.03;;;20.50;47.00;;;;;;4877921;29;20057;-57
2022/03/24 06:24:43;;;;;;;9.25;6.70;;;20.50;47.00;;;;;;4879044;29;20052;-57
2022/03/24 06:27:09;;;;;;;9.15;6.80;;;20.50;47.00;;;;;;4879034;29;20049;-57
2022/03/24 06:29:35;;;;;;;9.05;6.35;;;20.50;47.00;;;;;;4877522;29;20041;-57
2022/03/24 06:32:00;;;;;;;8.05;6.28;;;20.50;47.10;;;;;;4878469;29;20132;-57
2022/03/24 06:34:26;;;;;;;10.95;6.50;;;20.50;47.20;;;;;;4878189;29;20037;-57
2022/03/24 06:36:53;;;;;;;11.40;6.50;;;20.50;47.40;;;;;;4878261;29;20558;-57
2022/03/24 06:39:18;;;;;;;8.15;6.38;;;20.50;47.50;;;;;;4878404;29;20057;-58
2022/03/24 06:41:44;;;;;;;10.85;7.30;;;20.50;47.50;;;;;;4879116;29;20056;-57
2022/03/24 06:44:10;;;;;;;13.55;7.20;;;20.60;47.70;;;;;;4880369;29;20037;-57
2022/03/24 06:46:36;;;;;;;13.98;7.70;;;20.60;47.90;;;;;;4883675;29;20397;-57
2022/03/24 06:49:03;;;;;;;12.27;7.10;;;20.60;48.00;;;;;;4882040;29;20123;-57
2022/03/24 06:51:29;;;;;;;10.55;7.38;;;20.60;48.10;;;;;;4881990;29;20041;-57
2022/03/24 06:53:54;;;;;;;10.63;7.85;;;20.60;48.20;;;;;;4900499;29;20453;-57
2022/03/24 06:56:20;;;;;;;12.82;7.93;;;20.60;48.30;;;;;;4900621;29;20552;-57
2022/03/24 06:58:45;;;;;;;14.75;8.35;;;20.60;48.30;;;;;;4899187;29;20048;-57
2022/03/24 07:01:11;;;;;;;16.70;8.10;;;20.70;48.40;;;;;;4900395;29;20041;-57
2022/03/24 07:03:37;;;;;;;15.30;8.65;;;20.70;48.40;;;;;;4900687;29;20136;-57
2022/03/24 07:06:03;;;;;;;12.95;8.50;;;20.70;48.40;;;;;;4898838;29;20093;-57
2022/03/24 07:08:29;;;;;;;14.50;8.45;;;20.70;48.40;;;;;;4900485;29;20084;-57
2022/03/24 07:10:55;;;;;;;13.57;8.32;;;20.70;48.40;;;;;;4900550;29;20049;-58
2022/03/24 07:13:20;;;;;;;13.98;7.68;;;20.70;48.50;;;;;;4891978;29;20052;-57
2022/03/24 07:15:46;;;;;;;11.18;7.60;;;20.80;48.60;;;;;;4881367;29;20544;-57
2022/03/24 07:18:12;;;;;;;13.93;8.30;;;20.80;48.70;;;;;;4880176;29;20442;-57
2022/03/24 07:20:37;;;;;;;11.70;7.50;;;20.80;48.70;;;;;;4881752;29;20052;-57
2022/03/24 07:23:03;;;;;;;15.07;7.78;;;20.80;48.70;;;;;;4881525;29;20044;-57
2022/03/24 07:25:32;;;;;;;15.48;8.05;;;20.80;48.80;;;;;;4880425;29;20057;-57
2022/03/24 07:27:58;;;;;;;15.98;7.80;;;20.80;48.90;;;;;;4881651;29;20032;-57
2022/03/24 07:30:24;;;;;;;13.13;7.80;;;20.80;49.00;;;;;;4887343;29;20477;-57
2022/03/24 07:32:49;;;;;;;10.95;6.85;;;20.90;49.00;;;;;;4880619;29;20041;-57
2022/03/24 07:35:15;;;;;;;10.88;7.43;;;20.90;49.00;;;;;;4881257;29;20055;-57
2022/03/24 07:37:42;;;;;;;12.13;7.57;;;20.90;49.10;;;;;;4881285;29;20109;-58
2022/03/24 07:40:09;;;;;;;14.23;7.70;;;20.90;49.00;;;;;;4880322;29;20112;-57
2022/03/24 07:42:36;;;;;;;11.48;6.78;;;20.90;49.00;;;;;;4879462;29;20097;-57
2022/03/24 07:45:01;;;;;;;11.70;6.97;;;20.90;49.00;;;;;;4881129;29;20057;-57
2022/03/24 07:47:27;;;;;;;12.23;7.78;;;21.00;49.10;;;;;;4880105;29;20055;-56
2022/03/24 07:49:53;;;;;;;13.40;7.85;;;21.00;49.10;;;;;;4881079;29;20049;-57
2022/03/24 07:52:18;;;;;;;11.80;7.50;;;21.00;49.00;;;;;;4880475;29;20156;-57
2022/03/24 07:54:55;;;;;;;11.27;7.32;;;21.00;49.00;;;;;;4880244;29;20088;-57
2022/03/24 07:57:22;;;;;;;11.73;6.57;;;21.00;48.90;;;;;;4880519;29;20041;-56
2022/03/24 07:59:47;;;;;;;12.38;7.75;;;21.00;48.80;;;;;;4881029;29;20056;-57
2022/03/24 08:02:13;;;;;;;13.13;7.45;;;21.00;48.70;;;;;;4879441;29;20049;-57
2022/03/24 08:04:39;;;;;;;13.77;7.60;;;21.00;48.70;;;;;;4881370;29;20072;-57
2022/03/24 08:07:04;;;;;;;10.65;7.75;;;21.00;48.70;;;;;;4880309;29;20056;-57
2022/03/24 08:09:33;;;;;;;10.32;7.32;;;21.10;48.70;;;;;;4879925;29;20045;-57
2022/03/24 08:11:59;;;;;;;11.85;8.13;;;21.10;48.70;;;;;;4880566;29;20076;-57
2022/03/24 08:14:25;;;;;;;11.70;7.03;;;21.10;48.70;;;;;;4879608;29;20061;-57
2022/03/24 08:16:51;;;;;;;10.63;7.28;;;21.10;48.70;;;;;;4881049;29;20064;-57
2022/03/24 08:19:16;;;;;;;12.23;8.02;;;21.10;48.70;;;;;;4880730;29;20505;-57
2022/03/24 08:21:42;;;;;;;10.80;7.00;;;21.20;48.70;;;;;;4879862;29;20127;-57
2022/03/24 08:24:08;;;;;;;14.48;7.50;;;21.20;48.70;;;;;;4880252;29;20045;-57
2022/03/24 08:26:35;;;;;;;9.82;6.82;;;21.20;48.80;;;;;;4879966;29;20494;-57
2022/03/24 08:29:00;;;;;;;10.13;7.20;;;21.20;49.00;;;;;;4879884;29;20053;-57
2022/03/24 08:31:26;;;;;;;11.68;7.32;;;21.20;49.10;;;;;;4880348;29;20101;-56
2022/03/24 08:33:52;;;;;;;12.23;7.47;;;21.30;49.20;;;;;;4880327;29;20045;-57
2022/03/24 08:36:17;;;;;;;11.63;7.90;;;21.30;49.30;;;;;;4879504;29;20519;-57
2022/03/24 08:38:43;;;;;;;11.48;7.18;;;21.30;49.30;;;;;;4886820;29;20044;-57
2022/03/24 08:41:08;;;;;;;14.45;6.75;;;21.30;49.30;;;;;;4879789;29;20402;-56
2022/03/24 08:43:34;;;;;;;10.73;6.93;;;21.30;49.30;;;;;;4879360;29;20051;-57
2022/03/24 08:45:59;;;;;;;10.45;6.85;;;21.40;49.50;;;;;;4880040;29;20048;-57
2022/03/24 08:48:25;;;;;;;11.70;7.00;;;21.40;49.30;;;;;;4879951;29;20052;-57
2022/03/24 08:50:50;;;;;;;10.65;6.65;;;21.40;49.30;;;;;;4879470;29;20049;-57
2022/03/24 08:53:16;;;;;;;12.35;7.50;;;21.40;49.40;;;;;;4879747;29;20063;-57
2022/03/24 08:55:42;;;;;;;11.15;6.72;;;21.40;49.30;;;;;;4879755;29;20080;-58
2022/03/24 08:58:08;;;;;;;10.25;6.75;;;21.40;49.30;;;;;;4879333;29;20049;-57
2022/03/24 09:00:34;;;;;;;11.60;6.93;;;21.40;49.20;;;;;;4879510;29;20049;-57
2022/03/24 09:03:00;;;;;;;12.55;6.97;;;21.40;50.00;;;;;;4879990;29;20049;-57
2022/03/24 09:05:26;;;;;;;10.18;6.78;;;21.40;49.20;;;;;;4876637;29;20056;-56
2022/03/24 09:07:51;;;;;;;12.00;7.38;;;21.50;49.20;;;;;;4878980;29;20076;-56
2022/03/24 09:10:17;;;;;;;11.20;7.28;;;21.50;49.30;;;;;;4879047;29;20465;-57
2022/03/24 09:12:44;;;;;;;11.18;6.90;;;21.50;49.30;;;;;;4878314;29;20067;-57
2022/03/24 09:15:10;;;;;;;10.40;7.03;;;21.50;49.40;;;;;;4878092;29;20404;-57
2022/03/24 09:17:37;;;;;;;11.48;7.28;;;21.50;49.50;;;;;;4878205;29;20053;-57
2022/03/24 09:20:03;;;;;;;10.70;6.97;;;21.50;49.60;;;;;;4877691;29;20045;-57
2022/03/24 09:22:29;;;;;;;11.82;7.18;;;21.50;49.60;;;;;;4878752;29;20049;-57
2022/03/24 09:24:55;;;;;;;11.35;7.18;;;21.50;49.60;;;;;;4878132;29;20041;-57
2022/03/24 09:27:21;;;;;;;10.90;6.80;;;21.50;49.70;;;;;;4878558;29;20401;-56
2022/03/24 09:29:49;;;;;;;11.93;7.50;;;21.50;49.90;;;;;;4879089;29;20045;-57
2022/03/24 09:32:16;;;;;;;13.73;7.32;;;21.60;50.00;;;;;;4878281;29;20059;-57
2022/03/24 09:34:41;;;;;;;9.57;7.32;;;21.60;50.00;;;;;;4878859;29;20053;-57
2022/03/24 09:37:07;;;;;;;11.77;7.22;;;21.60;49.90;;;;;;4879071;29;20137;-57
2022/03/24 09:39:33;;;;;;;11.30;7.32;;;21.60;49.90;;;;;;4875493;29;20109;-57
2022/03/24 09:41:59;;;;;;;11.48;7.50;;;21.60;49.80;;;;;;4878889;29;20048;-57
2022/03/24 09:44:24;;;;;;;11.23;7.22;;;21.60;49.80;;;;;;4878255;29;20044;-57
2022/03/24 09:46:50;;;;;;;11.73;7.72;;;21.60;49.80;;;;;;4878241;29;20501;-57
2022/03/24 09:49:15;;;;;;;12.85;7.47;;;21.60;49.70;;;;;;4876619;29;20045;-57
2022/03/24 09:51:42;;;;;;;12.38;8.23;;;21.60;49.60;;;;;;4878948;29;20056;-58
2022/03/24 09:54:08;;;;;;;15.32;10.13;;;21.60;49.50;;;;;;4877494;29;20109;-57
2022/03/24 09:56:33;;;;;;;20.20;12.35;;;21.60;48.90;;;;;;4878309;29;20037;-57
2022/03/24 09:58:59;;;;;;;19.05;10.90;;;21.60;47.90;;;;;;4878816;29;20045;-57
2022/03/24 10:01:24;;;;;;;15.85;10.13;;;21.60;47.50;;;;;;4877271;29;20037;-57
2022/03/24 10:04:10;;;;;;;16.17;10.38;;;21.60;47.50;;;;;;4878720;29;20113;-58
2022/03/24 10:06:39;;;;;;;16.83;9.50;;;21.60;48.20;;;;;;4875067;29;20061;-57
2022/03/24 10:09:04;;;;;;;14.88;10.13;;;21.60;47.70;;;;;;4876832;29;20066;-57
2022/03/24 10:11:30;;;;;;;13.68;8.95;;;21.60;47.70;;;;;;4877939;29;20880;-57
2022/03/24 10:13:58;;;;;;;13.60;8.80;;;21.60;47.70;;;;;;4877606;29;20055;-58
2022/03/24 10:16:32;;;;;;;15.02;8.52;;;21.60;47.70;;;;;;4879796;29;20049;-58
2022/03/24 10:19:06;;;;;;;11.95;8.68;;;21.60;47.90;;;;;;4880607;29;20045;-57
2022/03/24 10:21:33;;;;;;;12.88;8.15;;;21.60;47.80;;;;;;4882401;29;20501;-57
2022/03/24 10:24:02;;;;;;;11.90;8.77;;;21.60;47.80;;;;;;4882649;29;20056;-56
2022/03/24 10:26:44;;;;;;;13.13;8.15;;;21.60;47.80;;;;;;4881604;29;20049;-56
2022/03/24 10:29:11;;;;;;;12.52;9.07;;;21.60;47.90;;;;;;4880066;29;20088;-56
2022/03/24 10:31:37;;;;;;;14.32;8.18;;;21.70;48.00;;;;;;4882211;29;20124;-56
2022/03/24 10:34:03;;;;;;;11.75;7.72;;;21.60;47.90;;;;;;4882103;29;20139;-56
2022/03/24 10:36:29;;;;;;;11.02;8.02;;;21.70;48.10;;;;;;4880914;29;20404;-56
2022/03/24 10:38:58;;;;;;;10.80;8.50;;;21.60;48.00;;;;;;4882231;29;20041;-56
2022/03/24 10:41:29;;;;;;;14.88;9.88;;;21.60;47.90;;;;;;4879214;29;20457;-56
2022/03/24 10:43:57;;;;;;;14.63;9.88;;;21.60;47.40;;;;;;4881145;29;20059;-56
2022/03/24 10:46:28;;;;;;;15.93;10.50;;;21.60;47.10;;;;;;4881980;29;20045;-56
2022/03/24 10:48:53;;;;;;;18.25;11.10;;;21.60;47.30;;;;;;4881483;29;20135;-56
2022/03/24 10:51:25;;;;;;;18.92;12.38;;;21.60;46.60;;;;;;4881953;29;20120;-56
2022/03/24 10:53:51;;;;;;;18.35;11.10;;;21.60;46.10;;;;;;4882071;29;20129;-56
2022/03/24 10:56:31;;;;;;;17.27;10.82;;;21.60;46.30;;;;;;4880258;29;20041;-56
2022/03/24 10:58:58;;;;;;;15.85;10.88;;;21.60;46.60;;;;;;4881592;29;20049;-55
2022/03/24 11:01:26;;;;;;;15.32;10.23;;;21.60;46.90;;;;;;4881444;29;20132;-55
2022/03/24 11:03:52;;;;;;;15.43;10.02;;;21.60;46.80;;;;;;4881299;29;20150;-56
2022/03/24 11:06:19;;;;;;;15.02;9.63;;;21.60;46.90;;;;;;4881461;29;20200;-56
2022/03/24 11:08:51;;;;;;;17.15;10.05;;;21.60;46.90;;;;;;4880373;29;20049;-56
2022/03/24 11:11:16;;;;;;;17.52;10.93;;;21.60;47.20;;;;;;4880078;29;20049;-56
2022/03/24 11:13:56;;;;;;;16.85;10.05;;;21.60;47.40;;;;;;4880898;29;20055;-56
2022/03/24 11:16:26;;;;;;;15.15;10.32;;;21.60;47.60;;;;;;4881194;29;20136;-55
2022/03/24 11:18:53;;;;;;;19.70;11.60;;;21.60;47.70;;;;;;4879694;29;20045;-56
2022/03/24 11:21:32;;;;;;;17.92;10.70;;;21.70;47.90;;;;;;4881214;29;20049;-56
2022/03/24 11:23:57;;;;;;;14.73;9.60;;;21.70;48.00;;;;;;4880894;29;20052;-55
2022/03/24 11:26:23;;;;;;;14.45;10.32;;;21.70;48.00;;;;;;4880997;29;20096;-55
2022/03/24 11:28:50;;;;;;;15.52;10.68;;;21.70;48.10;;;;;;4880277;29;20049;-56
2022/03/24 11:31:16;;;;;;;14.18;9.43;;;21.70;48.00;;;;;;4880244;29;20080;-56
2022/03/24 11:33:48;;;;;;;16.92;9.68;;;21.70;48.10;;;;;;4880811;29;20064;-56
2022/03/24 11:36:16;;;;;;;15.63;9.93;;;21.70;48.00;;;;;;4880951;29;20053;-56
2022/03/24 11:38:42;;;;;;;13.73;8.98;;;21.70;47.90;;;;;;4880710;29;20053;-56
2022/03/24 11:41:33;;;;;;;12.60;8.90;;;21.70;47.80;;;;;;4881135;29;20120;-56
2022/03/24 11:44:14;;;;;;;13.80;9.55;;;21.70;47.70;;;;;;4880533;29;20525;-56
2022/03/24 11:46:45;;;;;;;14.18;8.90;;;21.70;47.70;;;;;;4878888;29;20062;-56
2022/03/24 11:49:29;;;;;;;16.50;10.10;;;21.70;47.80;;;;;;4879991;29;20052;-56
2022/03/24 11:51:58;;;;;;;12.98;9.15;;;21.70;47.70;;;;;;4880499;29;20098;-56
2022/03/24 11:54:31;;;;;;;;;;;21.70;47.80;;;;;;4890975;29;20108;-56
2022/03/24 11:57:21;;;;;;;13.95;9.88;;;21.70;47.80;;;;;;4899712;29;19923;-56
2022/03/24 12:00:07;;;;;;;14.25;9.88;;;21.70;47.50;;;;;;4898617;29;20048;-56
2022/03/24 12:02:33;;;;;;;14.85;10.10;;;21.70;47.40;;;;;;4898870;29;20059;-56
2022/03/24 12:04:58;;;;;;;16.80;9.93;;;21.70;47.20;;;;;;4896737;29;20040;-55
2022/03/24 12:07:24;;;;;;;16.10;9.57;;;21.70;46.90;;;;;;4879621;29;20075;-55
2022/03/24 12:10:00;;;;;;;13.77;8.82;;;21.70;46.90;;;;;;4879465;29;20049;-56
2022/03/24 12:12:26;;;;;;;13.68;9.82;;;21.70;46.90;;;;;;4880322;29;20060;-55
2022/03/24 12:14:54;;;;;;;13.02;9.15;;;21.70;46.90;;;;;;4879889;29;20053;-56
2022/03/24 12:17:33;;;;;;;13.90;8.73;;;21.70;46.90;;;;;;4880234;29;20061;-56
2022/03/24 12:20:00;;;;;;;12.73;8.65;;;21.70;46.80;;;;;;4880302;29;20056;-55
2022/03/24 12:22:25;;;;;;;11.45;8.68;;;21.70;46.90;;;;;;4879329;29;20045;-56
2022/03/24 12:25:00;;;;;;;13.05;9.30;;;21.80;47.00;;;;;;4880306;29;20052;-56
2022/03/24 12:27:33;;;;;;;13.55;8.02;;;21.80;46.90;;;;;;4893550;29;20096;-56
2022/03/24 12:30:12;;;;;;;12.00;8.70;;;21.80;47.00;;;;;;4893933;29;20093;-56
2022/03/24 12:32:38;;;;;;;13.32;8.32;;;21.80;46.90;;;;;;4880165;29;20398;-56
2022/03/24 12:35:05;;;;;;;12.13;8.00;;;21.80;46.90;;;;;;4883541;29;20041;-56
2022/03/24 12:37:30;;;;;;;10.93;7.35;;;21.80;46.90;;;;;;4898534;29;20052;-57
2022/03/24 12:40:11;;;;;;;10.57;7.80;;;21.80;46.80;;;;;;4898980;29;20041;-57